AirNav   Air Wisconsin Up To $57,000 Bonus
 
 1249 users online  

WI47 Timberline Airport
Scandinavia, Wisconsin, USA

GOING TO SCANDINAVIA?


FAA INFORMATION EFFECTIVE 15 JULY 2021

Location

FAA Identifier: WI47
Lat/Long: 44-25-59.9200N 089-09-00.4040W
44-25.998667N 089-09.006733W
44.4333111,-89.1501122
(estimated)
Elevation: 890 ft. / 271 m (estimated)
Variation: 01W (1985)
From city: 2 miles S of SCANDINAVIA, WI
Time zone: UTC -5 (UTC -6 during Standard Time)
Zip code: 54977

Airport Operations

Airport use: Private use. Permission required prior to landing
Activation date: 07/1964
Control tower: no
ARTCC: MINNEAPOLIS CENTER
FSS: GREEN BAY FLIGHT SERVICE STATION
Attendance: UNATNDD
Wind indicator: yes
Segmented circle: no

Airport Communications

WX AWOS-3 at PCZ (8 nm SE): 118.625 (920-867-2407)
WX AWOS-3 at STE (18 nm W): 119.275 (715-344-5960)

Nearby radio navigation aids

VOR radial/distance  VOR name  Freq  Var
AUWr141/31.0WAUSAU VOR/DME111.6002E
OSHr314/36.9OSHKOSH VORTAC116.7502E

Airport Services

Airframe service: NONE
Powerplant service: NONE

Runway Information

Runway E/W

Dimensions: 2200 x 100 ft. / 671 x 30 m
Surface: turf
RUNWAY E  RUNWAY W
Traffic pattern: leftleft
Obstructions: none30 ft. pline, 150 ft. from runway

Airport Ownership and Management from official FAA records

Ownership: Privately-owned
Owner: CAL AND LAURIE KRISHER
N5299 WINDY HILL ROAD
SCANDINAVIA, WI 54977
Phone 715-467-2721
Manager: CAL KRISHER
N5299 WINDY HILL ROAD
SCANDINAVIA, WI 54977
Phone 715-467-2721

Airport Operational Statistics

Aircraft based on the field: 1
Single engine airplanes: 1
    

Additional Remarks

FOR CD CTC MINNEAPOLIS ARTCC AT 651-463-5588.

Instrument Procedures

There are no published instrument procedures at WI47.

Some nearby airports with instrument procedures:

KPCZ - Waupaca Municipal Airport (8 nm SE)
KSTE - Stevens Point Municipal Airport (18 nm NW)
KCLI - Clintonville Municipal Airport (21 nm NE)
Y50 - Wautoma Municipal Airport (24 nm S)
KATW - Appleton International Airport (29 nm E)
 
Loc | Ops | Rwys | IFR | FBO | Links
Com | Nav | Svcs | Stats | Notes
Area around WI47 (Timberline Airport)
 
Road maps at: MapQuest Bing Google
 
Aerial photo
No photo
 
Sectional chart

 
Airport distance calculator
Flying to Timberline Airport? Find the distance to fly.

From to WI47

Sunrise and sunset
Times for 29-Jul-2021
 Local
(UTC-5)
 Zulu
(UTC)
Morning civil twilight05:0810:08
Sunrise05:4110:41
Sunset20:2501:25
Evening civil twilight20:5801:58

Current date and time
Zulu (UTC)  29-Jul-2021 13:48:51
Local (UTC-5)  29-Jul-2021 08:48:51
 
METAR
KPCZ 
8nm SE 
291335Z AUTO 33007KT 10SM CLR 25/20 A2993 RMK AO2 T02460202
KSTE 
17nm W 
291335Z AUTO 34008KT 10SM CLR 22/20 A2996 RMK AO2 T02160197
TAF
KATW 
29nm E 
291228Z 2912/3012 34005KT P6SM BKN006 TEMPO 2912/2914 2SM BR BKN002 FM291500 35009G17KT P6SM SCT025 FM292100 02009G16KT P6SM SCT040 FM300300 04007KT P6SM SCT035
KCWA 
30nm NW 
291151Z 2912/3012 33008KT P6SM SCT005 TEMPO 2912/2913 BKN005 FM291400 35008KT P6SM SCT015 FM291600 35009G17KT P6SM SCT040 FM300100 04004KT P6SM SCT040
KAUW 
36nm NW 
291156Z 2912/3012 33006KT P6SM SCT004 TEMPO 2912/2913 BKN004 FM291300 35008KT P6SM SCT015 FM291600 35009G17KT P6SM SCT040 FM300100 04004KT P6SM SCT040
NOTAMs
Click for the latest NOTAMs
NOTAMs are issued by the DoD/FAA and will open in a separate window not controlled by AirNav.

 

 
 

Would you like to see your business listed on this page?

 If your business provides an interesting product or service to pilots, flight crews, aircraft, or users of the Timberline Airport, you should consider listing it here.  To start the listing process, click on the button below
 
Add a business
 

Other Pages about Timberline Airport

Update a link
 
Copyright © AirNav, LLC. All rights reserved. Privacy Policy  Contact